Airfield :
LOGIN :

Register | Disclaimer

   EN    FR    IT 

 










Legend :    VFR   Marginal VFR   IFR   Intensive IFR   Very Intensive IFR
Visi :
Ceiling :
>= 8 km
>= 3000ft
5 to 8 km
1000 to 3000 ft
1500m to 5 km
500 to 1000 ft
800 to 1500m
200 to 500 ft
< 800m
< 200 ft
Symbols :   Thunderstorms  Fog  Heavy snow  Heavy precipitations  Wind > 20 kt
SIGMETs :     Misc.  Thunderstorms  Icing  Turbulence  Mountain Waves  Volcanic Ashes






- Airport Elevation : 408 ft
- IATA code : FKB


EDSB - Karlsruhe Baden Baden

CURRENT METAR :
  • 250750Z 20003KT 0250 R21/0275D FZFG VV/// M03/M03 Q1034

EXPIRED METARs :
  • 250720Z VRB02KT 1500 BCFG BR BKN003 M05/M06 Q1034
  • 250650Z VRB02KT 4000 BCFG BR NSC M05/M05 Q1033
  • 250620Z 18002KT 9000 NSC M04/M05 Q1033
  • 250550Z 21003KT 2800 BCFG BR FEW018 M05/M05 Q1033
  • 250520Z 18002KT 0500 R21/0600U FZFG VV/// M04/M05 Q1033

TAF AMD TAF EDSB
Valid from the 25 at 07:00 until the 26 at 06:00 UTC


250700Z 2507/2606 VRB02KT 0200 FZFG BKN001
BECMG 2508/2510 3000 BCFG NSC
BECMG 2510/2512 6000
BECMG 2515/2519 0500 FZFG BKN001



MET'MAP, your aeronautical weather chart ! - Copyright ORBIFLY December 2007 - Disclaimer

ORBIFLY MET'MAP TEAM :

Programming & Development : Alexandra Zaïnal
Original concept : Baudouin d'Aumeries
Technical & hardware support : Manuel Goepfert
Assistance : Marc-Olivier Méhu

Contact : metmap@orbifly.com




SOURCES & CREDITS :

   NOAA